West Babylon, New York
Current Conditions -  °F | °C
As of 5:53 AM on Wednesday 22 Oct 2014 (Local Time) from KFRG Reporting Station
Overcast Overcast  
Wind Chill: 57°   Ceiling: 1300
Heat Index: 57°   Visibility: 10mi
Dew Point: 53°   Wind: 13mph
Humidity: 87%   Direction: 40°NE
Pressure: 29.88"   Gusts: 22mph
Location:  40.7°N, 73.35°W
Report Text: KFRG 220953Z AUTO 04011G19KT 10SM BKN013 OVC019 14/12 A2988 RMK AO2 LTG DSNT SW AND W SLP116 T01390117
Loading
Personal Weather Stations






























Interactive Weather Map
Tropical Storm Tracking
New forecast layout! Learn more

10-Day Weather Forecast

Advertisements
Track Severe Weather on mobile